createdAt,value
2017-12-20T00:00:05.146Z,21.8
2017-12-20T00:02:04.853Z,21.8
2017-12-20T00:04:08.266Z,21.8
2017-12-20T00:06:07.582Z,21.8
2017-12-20T00:08:04.860Z,21.8
2017-12-20T00:10:10.680Z,21.8
2017-12-20T00:12:10.482Z,21.7
2017-12-20T00:14:05.420Z,21.8
2017-12-20T00:16:05.158Z,21.7
2017-12-20T00:18:05.160Z,21.8
2017-12-20T00:20:04.964Z,21.8
2017-12-20T00:22:05.326Z,21.7
2017-12-20T00:24:05.174Z,21.7
2017-12-20T00:26:04.958Z,21.7
2017-12-20T00:28:04.823Z,21.8
2017-12-20T00:30:05.615Z,21.8
2017-12-20T00:32:04.881Z,21.7
2017-12-20T00:34:05.635Z,21.8
2017-12-20T00:36:05.664Z,21.7
2017-12-20T00:38:07.947Z,21.7
2017-12-20T00:40:07.284Z,21.7
2017-12-20T00:42:05.185Z,21.7
2017-12-20T00:44:05.659Z,21.7
2017-12-20T00:46:05.686Z,21.7
2017-12-20T00:48:05.531Z,21.7
2017-12-20T00:50:05.307Z,21.7
2017-12-20T00:52:05.176Z,21.7
2017-12-20T00:54:05.460Z,21.7
2017-12-20T00:56:07.761Z,21.7
2017-12-20T00:58:05.529Z,21.7
2017-12-20T01:00:05.281Z,21.7
2017-12-20T01:02:05.020Z,21.7
2017-12-20T01:04:04.790Z,21.7
2017-12-20T01:06:05.632Z,21.7
2017-12-20T01:08:07.482Z,21.7
2017-12-20T01:10:05.217Z,21.7
2017-12-20T01:12:04.957Z,21.7
2017-12-20T01:14:05.243Z,21.7
2017-12-20T01:16:05.140Z,21.7
2017-12-20T01:18:05.100Z,21.7
2017-12-20T01:20:04.895Z,21.7
2017-12-20T01:22:04.757Z,21.7
2017-12-20T01:24:05.514Z,21.7
2017-12-20T01:26:07.791Z,21.7
2017-12-20T01:28:08.203Z,21.7
2017-12-20T01:30:04.995Z,21.7
2017-12-20T01:32:04.761Z,21.7
2017-12-20T01:34:05.593Z,21.6
2017-12-20T01:36:05.370Z,21.6
2017-12-20T01:38:04.692Z,21.7
2017-12-20T01:40:09.950Z,21.7
2017-12-20T01:42:04.699Z,21.6
2017-12-20T01:44:08.038Z,21.6
2017-12-20T01:46:04.814Z,21.6
2017-12-20T01:48:05.631Z,21.7
2017-12-20T01:50:05.386Z,21.6
2017-12-20T01:52:05.234Z,21.6
2017-12-20T01:54:07.502Z,21.6
2017-12-20T01:56:05.286Z,21.6
2017-12-20T01:58:05.045Z,21.6
2017-12-20T02:00:05.312Z,21.6
2017-12-20T02:02:05.044Z,21.6
2017-12-20T02:04:04.780Z,21.6
2017-12-20T02:06:07.248Z,21.6
2017-12-20T02:08:04.993Z,21.6
2017-12-20T02:10:07.368Z,21.6
2017-12-20T02:12:04.697Z,21.6
2017-12-20T02:14:05.469Z,21.6
2017-12-20T02:16:09.900Z,21.6
2017-12-20T02:18:04.843Z,21.6
2017-12-20T02:20:05.601Z,21.6
2017-12-20T02:22:10.041Z,21.6
2017-12-20T02:24:04.808Z,21.6
2017-12-20T02:26:05.569Z,21.6
2017-12-20T02:28:04.980Z,21.6
2017-12-20T02:30:07.274Z,21.6
2017-12-20T02:32:05.038Z,21.6
2017-12-20T02:34:07.340Z,21.6
2017-12-20T02:36:10.253Z,21.6
2017-12-20T02:38:20.719Z,21.6
2017-12-20T02:40:08.026Z,21.6
2017-12-20T02:42:04.778Z,21.6
2017-12-20T02:44:05.549Z,21.6
2017-12-20T02:46:04.858Z,21.6
2017-12-20T02:48:07.182Z,21.6
2017-12-20T02:50:07.491Z,21.6
2017-12-20T02:52:05.306Z,21.5
2017-12-20T02:54:10.209Z,21.6
2017-12-20T02:56:04.955Z,21.5
2017-12-20T02:58:07.341Z,21.6
2017-12-20T03:00:07.639Z,21.6
2017-12-20T03:02:04.957Z,21.6
2017-12-20T03:04:07.855Z,21.6
2017-12-20T03:06:04.613Z,21.6
2017-12-20T03:08:08.000Z,21.6
2017-12-20T03:10:04.789Z,21.6
2017-12-20T03:12:13.188Z,21.5
2017-12-20T03:14:05.000Z,21.5
2017-12-20T03:16:09.902Z,21.5
2017-12-20T03:18:09.886Z,21.5
2017-12-20T03:20:04.743Z,21.5
2017-12-20T03:22:05.047Z,21.6
2017-12-20T03:24:04.821Z,21.5
2017-12-20T03:26:05.556Z,21.6
2017-12-20T03:28:15.422Z,21.5
2017-12-20T03:30:10.255Z,21.6
2017-12-20T03:32:05.037Z,21.6
2017-12-20T03:34:05.407Z,21.5
2017-12-20T03:36:07.712Z,21.5
2017-12-20T03:38:05.511Z,21.5
2017-12-20T03:40:04.740Z,21.5
2017-12-20T03:42:05.515Z,21.5
2017-12-20T03:44:07.870Z,21.5
2017-12-20T03:46:10.285Z,21.5
2017-12-20T03:48:05.060Z,21.5
2017-12-20T03:50:04.901Z,21.5
2017-12-20T03:52:04.705Z,21.5
2017-12-20T03:54:05.459Z,21.5
2017-12-20T03:56:07.340Z,21.5
2017-12-20T03:58:05.121Z,21.5
2017-12-20T04:00:04.874Z,21.5
2017-12-20T04:02:04.830Z,21.5
2017-12-20T04:04:04.684Z,21.5
2017-12-20T04:06:05.474Z,21.5
2017-12-20T04:08:05.338Z,21.5
2017-12-20T04:10:10.245Z,21.5
2017-12-20T04:12:05.683Z,21.4
2017-12-20T04:14:05.003Z,21.4
2017-12-20T04:16:05.199Z,21.4
2017-12-20T04:18:05.166Z,21.4
2017-12-20T04:20:05.052Z,21.4
2017-12-20T04:22:07.399Z,21.3
2017-12-20T04:24:05.275Z,21.4
2017-12-20T04:26:07.194Z,21.3
2017-12-20T04:28:05.145Z,21.3
2017-12-20T04:30:05.097Z,21.4
2017-12-20T04:32:05.372Z,21.4
2017-12-20T04:34:05.186Z,21.3
2017-12-20T04:36:10.102Z,21.3
2017-12-20T04:38:05.439Z,21.3
2017-12-20T04:40:05.461Z,21.4
2017-12-20T04:42:04.798Z,21.4
2017-12-20T04:44:04.665Z,21.3
2017-12-20T04:46:05.616Z,21.3
2017-12-20T04:48:05.423Z,21.4
2017-12-20T04:50:10.294Z,21.3
2017-12-20T04:52:05.140Z,21.3
2017-12-20T04:54:04.950Z,21.4
2017-12-20T04:56:04.866Z,21.3
2017-12-20T04:58:04.716Z,21.4
2017-12-20T05:00:05.615Z,21.4
2017-12-20T05:02:05.434Z,21.3
2017-12-20T05:04:05.231Z,21.3
2017-12-20T05:06:05.005Z,21.4
2017-12-20T05:08:07.278Z,21.3
2017-12-20T05:10:05.105Z,21.3
2017-12-20T05:12:04.926Z,21.4
2017-12-20T05:14:04.695Z,21.4
2017-12-20T05:16:05.545Z,21.4
2017-12-20T05:18:10.588Z,21.3
2017-12-20T05:20:07.846Z,21.4
2017-12-20T05:22:13.226Z,21.4
2017-12-20T05:24:05.578Z,21.4
2017-12-20T05:26:04.893Z,21.4
2017-12-20T05:28:04.697Z,21.5
2017-12-20T05:30:05.423Z,21.5
2017-12-20T05:32:04.801Z,21.4
2017-12-20T05:34:17.184Z,21.4
2017-12-20T05:36:08.527Z,21.4
2017-12-20T05:38:04.987Z,21.4
2017-12-20T05:40:04.801Z,21.4
2017-12-20T05:42:04.629Z,21.4
2017-12-20T05:44:05.405Z,21.3
2017-12-20T05:46:10.339Z,21.3
2017-12-20T05:48:04.672Z,21.3
2017-12-20T05:50:05.437Z,21.3
2017-12-20T05:52:05.238Z,21.3
2017-12-20T05:54:07.601Z,21.5
2017-12-20T05:56:10.506Z,21.4
2017-12-20T05:58:04.821Z,21.5
2017-12-20T06:00:05.613Z,21.5
2017-12-20T06:02:05.435Z,21.5
2017-12-20T06:04:05.295Z,21.5
2017-12-20T06:06:05.134Z,21.5
2017-12-20T06:08:07.484Z,21.5
2017-12-20T06:10:05.349Z,21.5
2017-12-20T06:12:05.127Z,21.5
2017-12-20T06:14:04.846Z,21.4
2017-12-20T06:16:05.636Z,21.4
2017-12-20T06:18:05.599Z,21.3
2017-12-20T06:20:05.407Z,21.3
2017-12-20T06:22:05.211Z,21.4
2017-12-20T06:24:04.960Z,21.4
2017-12-20T06:26:04.740Z,21.4
2017-12-20T06:28:05.511Z,21.4
2017-12-20T06:30:04.823Z,21.4
2017-12-20T06:32:15.732Z,21.3
2017-12-20T06:34:05.540Z,21.3
2017-12-20T06:36:05.407Z,21.4
2017-12-20T06:38:04.740Z,21.4
2017-12-20T06:40:05.568Z,21.4
2017-12-20T06:42:04.883Z,21.3
2017-12-20T06:44:07.279Z,21.4
2017-12-20T06:46:05.578Z,21.4
2017-12-20T06:48:07.899Z,21.4
2017-12-20T06:50:04.688Z,21.4
2017-12-20T06:52:05.094Z,21.3
2017-12-20T06:54:04.874Z,21.3
2017-12-20T06:56:04.655Z,21.3
2017-12-20T06:58:04.949Z,21.4
2017-12-20T07:00:04.706Z,21.3
2017-12-20T07:02:13.168Z,21.4
2017-12-20T07:04:05.095Z,21.4
2017-12-20T07:06:07.439Z,21.5
2017-12-20T07:08:07.789Z,21.5
2017-12-20T07:10:05.692Z,21.5
2017-12-20T07:12:05.451Z,21.4
2017-12-20T07:14:05.202Z,21.5
2017-12-20T07:16:05.537Z,21.5
2017-12-20T07:18:05.042Z,21.5
2017-12-20T07:20:09.887Z,21.4
2017-12-20T07:22:04.698Z,21.4
2017-12-20T07:24:04.702Z,21.5
2017-12-20T07:26:05.441Z,21.5
2017-12-20T07:28:05.187Z,21.6
2017-12-20T07:30:05.032Z,21.6
2017-12-20T07:32:04.766Z,21.7
2017-12-20T07:34:10.798Z,21.9
2017-12-20T07:36:05.310Z,21.9
2017-12-20T07:38:05.099Z,22
2017-12-20T07:40:04.885Z,22.1
2017-12-20T07:42:04.736Z,22.2
2017-12-20T07:44:05.068Z,22.2
2017-12-20T07:46:04.831Z,22.2
2017-12-20T07:48:07.150Z,22.2
2017-12-20T07:50:07.396Z,22.3
2017-12-20T07:52:07.763Z,22.4
2017-12-20T07:54:05.525Z,22.4
2017-12-20T07:56:07.898Z,22.5
2017-12-20T07:58:05.665Z,22.5
2017-12-20T08:00:04.962Z,22.5
2017-12-20T08:02:04.750Z,22.6
2017-12-20T08:04:07.670Z,22.6
2017-12-20T08:06:05.504Z,22.6
2017-12-20T08:08:04.767Z,22.7
2017-12-20T08:10:05.219Z,22.7
2017-12-20T08:12:04.989Z,22.7
2017-12-20T08:14:05.320Z,22.8
2017-12-20T08:16:07.652Z,22.7
2017-12-20T08:18:05.122Z,22.7
2017-12-20T08:20:04.925Z,22.8
2017-12-20T08:22:04.851Z,22.8
2017-12-20T08:24:05.220Z,22.9
2017-12-20T08:26:11.160Z,23
2017-12-20T08:30:05.593Z,23
2017-12-20T08:32:07.967Z,23
2017-12-20T08:34:05.976Z,23
2017-12-20T08:36:08.061Z,23
2017-12-20T08:38:05.336Z,23
2017-12-20T08:40:10.291Z,23
2017-12-20T08:42:05.210Z,23.1
2017-12-20T08:44:08.579Z,23.1
2017-12-20T08:46:08.089Z,23
2017-12-20T08:48:06.679Z,23
2017-12-20T08:50:05.749Z,23
2017-12-20T08:52:05.139Z,23
2017-12-20T08:54:05.364Z,23
2017-12-20T08:56:05.005Z,23
2017-12-20T08:58:06.314Z,23
2017-12-20T09:00:05.707Z,23
2017-12-20T09:02:05.327Z,23
2017-12-20T09:04:05.636Z,23
2017-12-20T09:06:04.993Z,23
2017-12-20T09:08:07.756Z,23
2017-12-20T09:10:07.871Z,22.9
2017-12-20T09:12:10.249Z,22.9
2017-12-20T09:14:11.018Z,22.9
2017-12-20T09:16:05.551Z,22.9
2017-12-20T09:18:06.019Z,22.9
2017-12-20T09:20:10.110Z,22.9
2017-12-20T09:22:05.442Z,22.9
2017-12-20T09:24:05.472Z,22.9
2017-12-20T09:26:04.707Z,22.9
2017-12-20T09:28:05.899Z,22.9
2017-12-20T09:30:05.038Z,22.9
2017-12-20T09:32:05.873Z,22.9
2017-12-20T09:34:04.854Z,22.9
2017-12-20T09:36:12.606Z,22.9
2017-12-20T09:38:05.320Z,22.9
2017-12-20T09:40:05.096Z,22.9
2017-12-20T09:42:04.869Z,22.9
2017-12-20T09:44:04.635Z,22.9
2017-12-20T09:46:05.502Z,22.9
2017-12-20T09:48:05.368Z,22.9
2017-12-20T09:50:05.327Z,22.9
2017-12-20T09:52:05.113Z,23
2017-12-20T09:54:10.494Z,22.9
2017-12-20T09:56:07.770Z,23
2017-12-20T09:58:05.536Z,23
2017-12-20T10:00:05.283Z,23
2017-12-20T10:02:05.035Z,23
2017-12-20T10:04:04.898Z,23
2017-12-20T10:06:04.629Z,23
2017-12-20T10:08:10.424Z,23
2017-12-20T10:10:07.708Z,23
2017-12-20T10:12:07.973Z,23
2017-12-20T10:14:04.785Z,23
2017-12-20T10:16:05.919Z,23
2017-12-20T10:18:04.919Z,23
2017-12-20T10:20:04.775Z,23
2017-12-20T10:22:05.537Z,23
2017-12-20T10:24:05.306Z,23
2017-12-20T10:26:05.033Z,23.1
2017-12-20T10:28:04.909Z,23
2017-12-20T10:30:05.180Z,23.1
2017-12-20T10:32:07.620Z,23.1
2017-12-20T10:34:10.889Z,23
2017-12-20T10:36:04.909Z,23.1
2017-12-20T10:38:05.427Z,23
2017-12-20T10:40:05.498Z,23
2017-12-20T10:42:08.287Z,23
2017-12-20T10:44:05.334Z,23
2017-12-20T10:46:05.391Z,23
2017-12-20T10:48:04.725Z,23
2017-12-20T10:50:08.101Z,23
2017-12-20T10:52:05.524Z,23
2017-12-20T10:54:04.938Z,23
2017-12-20T10:56:04.734Z,23
2017-12-20T10:58:05.488Z,23
2017-12-20T11:00:07.790Z,23
2017-12-20T11:02:05.036Z,23
2017-12-20T11:04:05.065Z,23
2017-12-20T11:06:04.830Z,23
2017-12-20T11:08:05.571Z,23
2017-12-20T11:10:05.331Z,23
2017-12-20T11:12:05.073Z,23
2017-12-20T11:14:04.837Z,23
2017-12-20T11:16:13.302Z,22.9
2017-12-20T11:18:04.775Z,22.9
2017-12-20T11:20:05.526Z,22.9
2017-12-20T11:22:04.818Z,22.8
2017-12-20T11:24:05.588Z,22.7
2017-12-20T11:26:07.878Z,22.7
2017-12-20T11:28:05.647Z,22.7
2017-12-20T11:30:07.956Z,22.6
2017-12-20T11:32:04.772Z,22.6
2017-12-20T11:34:08.146Z,22.6
2017-12-20T11:36:04.876Z,22.6
2017-12-20T11:38:04.652Z,22.6
2017-12-20T11:40:05.567Z,22.6
2017-12-20T11:42:05.365Z,22.6
2017-12-20T11:44:05.110Z,22.6
2017-12-20T11:46:05.403Z,22.6
2017-12-20T11:48:07.736Z,22.6
2017-12-20T11:50:08.046Z,22.6
2017-12-20T11:52:04.822Z,22.6
2017-12-20T11:54:05.588Z,22.6
2017-12-20T11:56:05.389Z,22.6
2017-12-20T11:58:06.098Z,22.6
2017-12-20T12:00:05.396Z,22.6
2017-12-20T12:02:05.112Z,22.6
2017-12-20T12:04:07.459Z,22.6
2017-12-20T12:06:07.726Z,22.6
2017-12-20T12:08:05.506Z,22.6
2017-12-20T12:10:05.284Z,22.6
2017-12-20T12:12:10.104Z,22.6
2017-12-20T12:14:04.835Z,22.6
2017-12-20T12:16:05.669Z,22.6
2017-12-20T12:18:07.208Z,22.6
2017-12-20T12:20:05.001Z,22.6
2017-12-20T12:22:05.403Z,22.6
2017-12-20T12:24:05.190Z,22.5
2017-12-20T12:26:04.938Z,22.5
2017-12-20T12:28:04.860Z,22.5
2017-12-20T12:30:04.614Z,22.5
2017-12-20T12:32:05.467Z,22.5
2017-12-20T12:34:05.332Z,22.4
2017-12-20T12:36:05.139Z,22.4
2017-12-20T12:38:10.470Z,22.4
2017-12-20T12:40:05.236Z,22.4
2017-12-20T12:42:04.959Z,22.4
2017-12-20T12:44:04.793Z,22.4
2017-12-20T12:46:04.762Z,22.4
2017-12-20T12:48:05.494Z,22.4
2017-12-20T12:50:05.247Z,22.3
2017-12-20T12:52:12.711Z,22.3
2017-12-20T12:54:05.449Z,22.3
2017-12-20T12:56:05.210Z,22.3
2017-12-20T12:58:08.068Z,22.3
2017-12-20T13:00:04.850Z,22.3
2017-12-20T13:02:05.638Z,22.3
2017-12-20T13:04:04.887Z,22.3
2017-12-20T13:06:05.616Z,22.3
2017-12-20T13:08:07.945Z,22.2
2017-12-20T13:10:07.318Z,22.2
2017-12-20T13:12:05.154Z,22.2
2017-12-20T13:14:05.946Z,22.2
2017-12-20T13:16:05.211Z,22.2
2017-12-20T13:18:05.430Z,22.2
2017-12-20T13:20:04.737Z,22.2
2017-12-20T13:22:05.496Z,22.2
2017-12-20T13:24:05.622Z,22.1
2017-12-20T13:26:05.388Z,22.1
2017-12-20T13:28:07.207Z,22.1
2017-12-20T13:30:04.984Z,22.1
2017-12-20T13:32:04.786Z,22.1
2017-12-20T13:34:05.689Z,22.1
2017-12-20T13:36:10.632Z,22.1
2017-12-20T13:38:05.368Z,22.1
2017-12-20T13:40:05.250Z,22.1
2017-12-20T13:42:05.488Z,22
2017-12-20T13:44:05.317Z,22
2017-12-20T13:46:10.253Z,22
2017-12-20T13:48:05.021Z,22
2017-12-20T13:50:04.796Z,22
2017-12-20T13:52:05.594Z,22
2017-12-20T13:54:07.950Z,22
2017-12-20T13:56:04.698Z,22
2017-12-20T13:58:08.004Z,22
2017-12-20T14:00:07.816Z,21.9
2017-12-20T14:02:05.541Z,21.9
2017-12-20T14:04:05.006Z,21.9
2017-12-20T14:06:07.309Z,22
2017-12-20T14:08:05.016Z,21.9
2017-12-20T14:10:04.791Z,21.9
2017-12-20T14:12:05.057Z,21.9
2017-12-20T14:14:07.359Z,21.9
2017-12-20T14:16:04.687Z,21.9
2017-12-20T14:18:04.605Z,21.9
2017-12-20T14:20:05.337Z,21.9
2017-12-20T14:22:05.112Z,21.9
2017-12-20T14:24:05.067Z,21.9
2017-12-20T14:26:04.824Z,21.9
2017-12-20T14:28:05.097Z,21.9
2017-12-20T14:30:07.427Z,21.9
2017-12-20T14:32:05.213Z,21.8
2017-12-20T14:34:05.026Z,21.9
2017-12-20T14:36:10.344Z,21.9
2017-12-20T14:38:05.177Z,21.9
2017-12-20T14:40:05.017Z,21.9
2017-12-20T14:42:04.776Z,21.9
2017-12-20T14:44:05.560Z,21.8
2017-12-20T14:46:05.425Z,21.9
2017-12-20T14:48:05.242Z,21.8
2017-12-20T14:50:05.523Z,21.8
2017-12-20T14:52:05.302Z,21.9
2017-12-20T14:54:05.031Z,21.8
2017-12-20T14:56:04.886Z,21.8
2017-12-20T14:58:07.204Z,21.8
2017-12-20T15:00:10.065Z,21.8
2017-12-20T15:02:04.886Z,21.8
2017-12-20T15:04:04.689Z,21.8
2017-12-20T15:06:07.966Z,21.8
2017-12-20T15:08:05.274Z,21.8
2017-12-20T15:10:05.556Z,21.8
2017-12-20T15:12:04.768Z,21.8
2017-12-20T15:14:05.555Z,21.8
2017-12-20T15:16:05.308Z,21.8
2017-12-20T15:18:05.248Z,21.8
2017-12-20T15:20:10.052Z,21.8
2017-12-20T15:22:04.782Z,21.8
2017-12-20T15:24:05.625Z,21.8
2017-12-20T15:26:05.377Z,21.8
2017-12-20T15:28:05.213Z,21.8
2017-12-20T15:30:04.945Z,21.8
2017-12-20T15:32:04.841Z,21.8
2017-12-20T15:34:05.574Z,21.8
2017-12-20T15:36:05.282Z,21.8
2017-12-20T15:38:05.031Z,21.8
2017-12-20T15:40:04.782Z,21.8
2017-12-20T15:42:05.591Z,21.8
2017-12-20T15:44:05.339Z,21.8
2017-12-20T15:46:05.204Z,21.8
2017-12-20T15:48:07.487Z,21.8
2017-12-20T15:50:05.435Z,21.7
2017-12-20T15:52:05.654Z,21.8
2017-12-20T15:54:05.354Z,21.8
2017-12-20T15:56:07.714Z,21.8
2017-12-20T15:58:08.070Z,21.8
2017-12-20T16:00:12.402Z,21.8
2017-12-20T16:02:05.187Z,21.8
2017-12-20T16:04:04.968Z,21.8
2017-12-20T16:06:04.726Z,21.8
2017-12-20T16:08:05.496Z,21.8
2017-12-20T16:10:09.821Z,21.8
2017-12-20T16:12:05.611Z,21.8
2017-12-20T16:14:04.896Z,21.8
2017-12-20T16:16:04.841Z,21.7
2017-12-20T16:18:04.780Z,21.8
2017-12-20T16:20:05.139Z,21.8
2017-12-20T16:22:04.926Z,21.8
2017-12-20T16:24:07.260Z,21.8
2017-12-20T16:26:05.047Z,21.8
2017-12-20T16:28:04.841Z,21.8
2017-12-20T16:30:05.547Z,21.8
2017-12-20T16:32:05.336Z,21.8
2017-12-20T16:34:05.222Z,21.8
2017-12-20T16:36:05.509Z,21.8
2017-12-20T16:38:04.815Z,21.8
2017-12-20T16:40:05.691Z,21.8
2017-12-20T16:42:05.438Z,21.8
2017-12-20T16:44:05.319Z,21.8
2017-12-20T16:46:05.274Z,21.8
2017-12-20T16:48:05.099Z,21.8
2017-12-20T16:50:09.895Z,21.8
2017-12-20T16:52:04.712Z,21.8
2017-12-20T16:54:05.442Z,21.8
2017-12-20T16:56:05.209Z,21.8
2017-12-20T16:58:05.007Z,21.8
2017-12-20T17:00:04.886Z,21.8
2017-12-20T17:02:05.678Z,21.8
2017-12-20T17:04:05.030Z,21.8
2017-12-20T17:06:04.792Z,21.8
2017-12-20T17:08:08.014Z,21.8
2017-12-20T17:10:09.354Z,21.8
2017-12-20T17:12:07.230Z,21.8
2017-12-20T17:14:10.342Z,21.8
2017-12-20T17:16:07.690Z,21.8
2017-12-20T17:18:07.711Z,21.8
2017-12-20T17:20:04.715Z,21.8
2017-12-20T17:22:12.344Z,21.8
2017-12-20T17:24:05.099Z,21.8
2017-12-20T17:26:07.390Z,21.8
2017-12-20T17:28:07.705Z,21.8
2017-12-20T17:30:07.584Z,21.8
2017-12-20T17:32:04.946Z,21.8
2017-12-20T17:34:04.700Z,21.8
2017-12-20T17:36:05.581Z,21.8
2017-12-20T17:38:04.908Z,21.8
2017-12-20T17:40:04.691Z,21.8
2017-12-20T17:42:05.425Z,21.8
2017-12-20T17:44:05.151Z,21.7
2017-12-20T17:46:04.918Z,21.8
2017-12-20T17:48:09.805Z,21.7
2017-12-20T17:50:05.235Z,21.8
2017-12-20T17:52:05.383Z,21.7
2017-12-20T17:54:05.127Z,21.8
2017-12-20T17:56:07.471Z,21.7
2017-12-20T17:58:05.260Z,21.8
2017-12-20T18:00:05.133Z,21.7
2017-12-20T18:02:04.913Z,21.8
2017-12-20T18:04:04.785Z,21.7
2017-12-20T18:06:04.836Z,21.8
2017-12-20T18:08:04.674Z,21.8
2017-12-20T18:10:05.453Z,21.8
2017-12-20T18:12:05.229Z,21.8
2017-12-20T18:14:05.030Z,21.8
2017-12-20T18:16:07.609Z,21.7
2017-12-20T18:18:05.604Z,21.7
2017-12-20T18:20:05.552Z,21.8
2017-12-20T18:22:05.401Z,21.7
2017-12-20T18:24:05.153Z,21.7
2017-12-20T18:26:09.960Z,21.7
2017-12-20T18:28:05.124Z,21.7
2017-12-20T18:30:09.938Z,21.7
2017-12-20T18:32:04.704Z,21.7
2017-12-20T18:34:08.084Z,21.8
2017-12-20T18:36:05.045Z,21.7
2017-12-20T18:38:04.822Z,21.8
2017-12-20T18:40:05.097Z,21.8
2017-12-20T18:42:07.428Z,21.8
2017-12-20T18:44:07.258Z,21.8
2017-12-20T18:46:05.020Z,21.7
2017-12-20T18:48:07.321Z,21.7
2017-12-20T18:50:05.607Z,21.7
2017-12-20T18:52:05.402Z,21.7
2017-12-20T18:54:05.145Z,21.8
2017-12-20T18:56:09.923Z,21.8
2017-12-20T18:58:07.774Z,21.8
2017-12-20T19:00:10.111Z,21.8
2017-12-20T19:02:04.940Z,21.8
2017-12-20T19:04:04.745Z,21.7
2017-12-20T19:06:05.502Z,21.8
2017-12-20T19:08:05.274Z,21.8
2017-12-20T19:10:05.125Z,21.8
2017-12-20T19:12:04.925Z,21.8
2017-12-20T19:14:04.814Z,21.7
2017-12-20T19:16:08.252Z,21.8
2017-12-20T19:18:07.769Z,21.8
2017-12-20T19:20:05.594Z,21.7
2017-12-20T19:22:05.338Z,21.7
2017-12-20T19:24:05.134Z,21.8
2017-12-20T19:26:04.927Z,21.8
2017-12-20T19:28:05.233Z,21.7
2017-12-20T19:30:10.063Z,21.7
2017-12-20T19:32:04.929Z,21.8
2017-12-20T19:34:05.858Z,21.8
2017-12-20T19:36:09.778Z,21.8
2017-12-20T19:38:08.120Z,21.8
2017-12-20T19:40:04.959Z,21.8
2017-12-20T19:42:07.252Z,21.8
2017-12-20T19:44:04.964Z,21.8
2017-12-20T19:46:09.973Z,21.8
2017-12-20T19:48:05.282Z,21.8
2017-12-20T19:50:05.016Z,21.8
2017-12-20T19:52:09.875Z,21.8
2017-12-20T19:54:09.721Z,21.8
2017-12-20T19:56:05.468Z,21.8
2017-12-20T19:58:07.716Z,21.8
2017-12-20T20:00:07.482Z,21.8
2017-12-20T20:02:07.394Z,21.8
2017-12-20T20:04:10.585Z,21.8
2017-12-20T20:06:05.538Z,21.8
2017-12-20T20:08:05.240Z,21.8
2017-12-20T20:10:07.790Z,21.8
2017-12-20T20:12:05.585Z,21.8
2017-12-20T20:14:05.880Z,21.8
2017-12-20T20:16:05.359Z,21.8
2017-12-20T20:18:05.025Z,21.8
2017-12-20T20:20:05.070Z,21.8
2017-12-20T20:22:04.949Z,21.8
2017-12-20T20:24:05.552Z,21.8
2017-12-20T20:26:04.917Z,21.8
2017-12-20T20:28:05.009Z,21.8
2017-12-20T20:30:06.473Z,21.8
2017-12-20T20:32:04.887Z,21.8
2017-12-20T20:34:06.196Z,21.8
2017-12-20T20:36:07.483Z,21.8
2017-12-20T20:38:05.235Z,21.8
2017-12-20T20:40:05.572Z,21.8
2017-12-20T20:42:05.357Z,21.8
2017-12-20T20:44:05.658Z,21.8
2017-12-20T20:46:07.533Z,21.8
2017-12-20T20:48:05.432Z,21.8
2017-12-20T20:50:05.268Z,21.8
2017-12-20T20:52:05.084Z,21.8
2017-12-20T20:54:09.085Z,21.8
2017-12-20T20:56:05.635Z,21.8
2017-12-20T20:58:15.587Z,21.8
2017-12-20T21:00:05.415Z,21.8
2017-12-20T21:02:05.206Z,21.8
2017-12-20T21:04:05.250Z,21.8
2017-12-20T21:06:05.385Z,21.8
2017-12-20T21:08:05.207Z,21.8
2017-12-20T21:10:05.445Z,21.8
2017-12-20T21:12:05.246Z,21.8
2017-12-20T21:14:05.014Z,21.9
2017-12-20T21:16:11.874Z,21.8
2017-12-20T21:18:08.456Z,21.8
2017-12-20T21:20:08.072Z,21.8
2017-12-20T21:22:04.810Z,21.8
2017-12-20T21:24:05.847Z,21.8
2017-12-20T21:26:05.598Z,21.8
2017-12-20T21:28:06.502Z,21.8
2017-12-20T21:30:05.533Z,21.8
2017-12-20T21:32:05.496Z,21.8
2017-12-20T21:34:05.392Z,21.8
2017-12-20T21:36:07.682Z,21.8
2017-12-20T21:38:05.458Z,21.8
2017-12-20T21:40:15.695Z,21.8
2017-12-20T21:42:05.560Z,21.8
2017-12-20T21:44:04.865Z,21.8
2017-12-20T21:46:07.214Z,21.8
2017-12-20T21:48:05.041Z,21.8
2017-12-20T21:50:07.849Z,21.9
2017-12-20T21:52:05.390Z,21.8
2017-12-20T21:54:05.544Z,21.9
2017-12-20T21:56:05.541Z,21.9
2017-12-20T21:58:06.296Z,21.9
2017-12-20T22:00:05.028Z,21.9
2017-12-20T22:02:05.406Z,21.8
2017-12-20T22:04:06.185Z,21.9
2017-12-20T22:06:05.410Z,21.9
2017-12-20T22:08:06.146Z,21.9
2017-12-20T22:10:09.966Z,21.9
2017-12-20T22:12:05.171Z,21.9
2017-12-20T22:14:08.035Z,21.9
2017-12-20T22:16:05.372Z,21.8
2017-12-20T22:18:04.842Z,21.8
2017-12-20T22:20:15.738Z,21.8
2017-12-20T22:22:04.935Z,21.8
2017-12-20T22:24:07.466Z,21.9
2017-12-20T22:26:07.393Z,21.9
2017-12-20T22:28:05.208Z,21.8
2017-12-20T22:30:05.105Z,21.9
2017-12-20T22:32:04.865Z,21.9
2017-12-20T22:34:05.173Z,21.8
2017-12-20T22:36:07.193Z,21.8
2017-12-20T22:38:07.613Z,21.8
2017-12-20T22:40:05.443Z,21.9
2017-12-20T22:42:05.538Z,21.8
2017-12-20T22:44:07.922Z,21.9
2017-12-20T22:46:09.834Z,21.8
2017-12-20T22:48:08.138Z,21.9
2017-12-20T22:50:04.921Z,21.9
2017-12-20T22:52:04.800Z,21.9
2017-12-20T22:54:10.262Z,21.9
2017-12-20T22:56:04.779Z,21.9
2017-12-20T22:58:05.678Z,21.9
2017-12-20T23:00:05.558Z,21.8
2017-12-20T23:02:05.403Z,21.8
2017-12-20T23:04:05.190Z,21.8
2017-12-20T23:06:05.405Z,21.8
2017-12-20T23:08:05.368Z,21.8
2017-12-20T23:10:05.399Z,21.8
2017-12-20T23:12:05.247Z,21.8
2017-12-20T23:14:05.521Z,21.8
2017-12-20T23:16:15.526Z,21.8
2017-12-20T23:18:05.502Z,21.8
2017-12-20T23:20:05.219Z,21.8
2017-12-20T23:22:05.080Z,21.8
2017-12-20T23:24:07.462Z,21.8
2017-12-20T23:26:05.235Z,21.8
2017-12-20T23:28:05.441Z,21.8
2017-12-20T23:30:05.177Z,21.8
2017-12-20T23:32:10.142Z,22
2017-12-20T23:34:04.994Z,22
2017-12-20T23:36:04.799Z,22
2017-12-20T23:38:10.590Z,21.9
2017-12-20T23:40:05.393Z,21.9
2017-12-20T23:42:05.126Z,21.9
2017-12-20T23:44:07.465Z,21.8
2017-12-20T23:46:07.866Z,21.9
2017-12-20T23:48:05.230Z,21.8
2017-12-20T23:50:04.998Z,21.8
2017-12-20T23:52:04.824Z,21.8
2017-12-20T23:54:05.276Z,21.8
2017-12-20T23:56:05.059Z,21.8
2017-12-20T23:58:10.089Z,21.8
